Time;durP1;ratioP1;P1;durP2;ratioP2;P2;SDS_P1;SDS_P2;PMS_P1;PMS_P2;Temp;Humidity;BMP_temperature;BMP_pressure;BME280_temperature;BME280_humidity;BME280_pressure;Samples;Min_cycle;Max_cycle;Signal;HPM_P1;HPM_P2
2022/11/29 00:01:19;;;;;;;21.67;14.02;;;;;;;5.21;100.00;95486.94;5057627;28;24447;-72
2022/11/29 00:03:46;;;;;;;26.27;17.50;;;;;;;5.19;100.00;95493.03;5068767;28;24437;-71
2022/11/29 00:06:15;;;;;;;37.10;21.13;;;;;;;5.19;100.00;95488.75;5065067;28;24430;-70
2022/11/29 00:08:42;;;;;;;25.40;20.27;;;;;;;5.24;100.00;95491.09;5061630;28;24476;-70
2022/11/29 00:11:10;;;;;;;28.48;19.42;;;;;;;5.20;100.00;95487.03;5065519;28;24423;-71
2022/11/29 00:13:37;;;;;;;24.00;17.02;;;;;;;5.15;100.00;95491.50;5060754;28;24437;-69
2022/11/29 00:16:07;;;;;;;31.40;17.65;;;;;;;5.20;100.00;95499.84;5066320;28;24507;-69
2022/11/29 00:18:34;;;;;;;34.80;16.55;;;;;;;5.18;100.00;95491.38;5065562;28;24442;-69
2022/11/29 00:21:05;;;;;;;22.83;15.40;;;;;;;5.12;100.00;95487.38;5067062;28;24434;-70
2022/11/29 00:23:31;;;;;;;12.55;8.65;;;;;;;5.07;100.00;95492.69;5065459;28;24971;-71
2022/11/29 00:26:03;;;;;;;10.98;9.23;;;;;;;5.08;100.00;95490.97;5066825;28;24430;-70
2022/11/29 00:28:29;;;;;;;10.77;8.90;;;;;;;5.07;100.00;95490.13;5062054;28;24991;-70
2022/11/29 00:30:56;;;;;;;11.20;8.98;;;;;;;5.06;100.00;95483.34;5063514;28;24435;-70
2022/11/29 00:33:24;;;;;;;13.30;8.70;;;;;;;5.12;100.00;95482.25;5065826;28;24435;-70
2022/11/29 00:35:50;;;;;;;9.60;8.40;;;;;;;5.06;100.00;95480.78;5066754;28;24450;-69
2022/11/29 00:38:17;;;;;;;10.73;8.68;;;;;;;5.02;100.00;95488.69;5063840;28;24441;-71
2022/11/29 00:40:43;;;;;;;12.95;8.50;;;;;;;5.00;100.00;95487.91;5061876;28;24427;-71
2022/11/29 00:43:10;;;;;;;8.63;7.72;;;;;;;5.04;100.00;95487.72;5064134;28;24435;-70
2022/11/29 00:45:36;;;;;;;7.13;6.40;;;;;;;5.10;100.00;95492.56;5067523;28;24429;-70
2022/11/29 00:48:03;;;;;;;9.32;7.78;;;;;;;5.07;100.00;95486.72;5064320;28;24442;-70
2022/11/29 00:50:31;;;;;;;9.30;7.18;;;;;;;5.08;100.00;95491.81;5067831;28;24434;-70
2022/11/29 00:52:57;;;;;;;7.32;6.43;;;;;;;5.13;100.00;95493.34;5064738;28;24984;-70
2022/11/29 00:55:24;;;;;;;7.93;6.97;;;;;;;5.15;100.00;95491.50;5068309;28;24457;-70
2022/11/29 00:57:50;;;;;;;7.78;6.43;;;;;;;5.16;100.00;95488.06;5067203;28;24449;-70
2022/11/29 01:00:17;;;;;;;8.02;6.72;;;;;;;5.15;100.00;95486.38;5068571;28;24433;-70
2022/11/29 01:02:44;;;;;;;8.82;6.93;;;;;;;5.14;100.00;95487.28;5064892;28;24442;-70
2022/11/29 01:05:10;;;;;;;7.88;6.85;;;;;;;5.16;100.00;95496.59;5068451;28;24789;-70
2022/11/29 01:07:38;;;;;;;23.20;15.35;;;;;;;5.08;100.00;95489.25;5064830;28;24442;-70
2022/11/29 01:10:06;;;;;;;15.60;11.30;;;;;;;5.07;100.00;95500.38;5071283;28;24434;-71
2022/11/29 01:12:35;;;;;;;9.38;7.72;;;;;;;5.04;100.00;95499.69;5068580;28;24446;-71
2022/11/29 01:15:01;;;;;;;11.10;8.13;;;;;;;4.98;100.00;95495.69;5071951;28;24457;-71
2022/11/29 01:17:28;;;;;;;7.80;7.00;;;;;;;5.02;100.00;95499.78;5057734;28;24853;-71
2022/11/29 01:19:54;;;;;;;8.93;7.38;;;;;;;5.08;100.00;95502.09;5066183;28;24441;-72
2022/11/29 01:22:21;;;;;;;7.60;6.78;;;;;;;5.04;100.00;95508.25;5062080;28;24436;-70
2022/11/29 01:24:49;;;;;;;7.07;5.80;;;;;;;5.05;100.00;95504.78;5070799;28;24433;-71
2022/11/29 01:27:16;;;;;;;8.70;6.68;;;;;;;5.04;100.00;95498.00;5062593;28;24435;-71
2022/11/29 01:29:42;;;;;;;8.43;6.80;;;;;;;5.00;100.00;95503.31;5071606;28;24434;-71
2022/11/29 01:32:11;;;;;;;8.85;6.93;;;;;;;4.97;100.00;95501.72;5067342;28;24441;-71
2022/11/29 01:34:37;;;;;;;8.13;6.82;;;;;;;5.04;100.00;95503.13;5071779;28;24451;-70
2022/11/29 01:37:04;;;;;;;8.80;6.20;;;;;;;5.05;100.00;95502.22;5065927;28;24435;-70
2022/11/29 01:39:30;;;;;;;7.00;6.28;;;;;;;5.06;100.00;95506.44;5068984;28;24434;-71
2022/11/29 01:41:59;;;;;;;7.80;6.63;;;;;;;5.07;100.00;95508.09;5066336;28;24439;-70
2022/11/29 01:45:02;;;;;;;7.63;6.87;;;;;;;5.02;100.00;95499.78;5069103;28;24464;-70
2022/11/29 01:47:30;;;;;;;8.10;6.72;;;;;;;5.01;100.00;95502.44;5063271;28;24545;-70
2022/11/29 01:49:56;;;;;;;7.73;5.90;;;;;;;5.06;100.00;95498.72;5063979;28;24540;-70
2022/11/29 01:52:27;;;;;;;6.63;6.00;;;;;;;5.04;100.00;95495.44;5064418;28;24845;-72
2022/11/29 01:54:57;;;;;;;7.70;6.60;;;;;;;5.06;100.00;95497.91;5066612;28;24814;-70
2022/11/29 01:57:26;;;;;;;6.57;5.83;;;;;;;5.03;100.00;95501.44;5060709;28;24496;-70
2022/11/29 01:59:56;;;;;;;6.18;5.28;;;;;;;5.10;100.00;95496.88;5071003;28;25006;-70
2022/11/29 02:02:30;;;;;;;9.10;5.43;;;;;;;5.12;100.00;95492.50;5065272;28;24475;-71
2022/11/29 02:04:58;;;;;;;5.88;5.30;;;;;;;5.06;100.00;95491.03;5070909;28;24431;-70
2022/11/29 02:07:24;;;;;;;6.10;4.70;;;;;;;5.02;100.00;95497.22;5064781;28;25046;-71
2022/11/29 02:09:51;;;;;;;4.90;4.30;;;;;;;5.08;100.00;95490.97;5063873;28;24797;-70
2022/11/29 02:12:29;;;;;;;5.57;4.50;;;;;;;5.07;100.00;95495.25;5065380;28;24450;-70
2022/11/29 02:15:08;;;;;;;4.78;4.22;;;;;;;5.03;100.00;95492.91;5061718;28;24490;-70
2022/11/29 02:17:45;;;;;;;4.55;4.07;;;;;;;5.07;100.00;95495.25;5064774;28;25040;-70
2022/11/29 02:20:34;;;;;;;4.82;4.28;;;;;;;5.05;100.00;95489.38;5060158;28;25025;-70
2022/11/29 02:23:18;;;;;;;6.10;4.28;;;;;;;5.01;100.00;95493.00;5069078;28;24441;-70
2022/11/29 02:26:01;;;;;;;5.20;4.50;;;;;;;5.04;100.00;95502.25;5061250;28;24438;-70
2022/11/29 02:29:05;;;;;;;4.93;4.40;;;;;;;5.07;100.00;95497.81;5063967;28;24996;-70
2022/11/29 02:32:03;;;;;;;5.78;4.28;;;;;;;5.04;100.00;95489.44;5066207;28;24533;-69
2022/11/29 02:34:50;;;;;;;8.88;4.20;;;;;;;5.11;100.00;95493.38;5069049;28;25023;-71
2022/11/29 02:37:56;;;;;;;4.68;4.15;;;;;;;5.06;100.00;95490.22;5066574;28;24987;-70
2022/11/29 02:40:51;;;;;;;4.07;3.33;;;;;;;5.09;100.00;95496.03;5067818;28;25008;-69
2022/11/29 02:43:33;;;;;;;4.07;3.65;;;;;;;5.11;100.00;95485.69;5067527;28;24433;-70
2022/11/29 02:46:12;;;;;;;3.95;3.50;;;;;;;5.12;100.00;95484.81;5063959;28;24435;-70
2022/11/29 02:49:00;;;;;;;4.38;3.55;;;;;;;5.19;100.00;95493.03;5058325;28;24438;-70
2022/11/29 02:51:39;;;;;;;5.85;3.53;;;;;;;5.12;100.00;95489.94;5067428;28;24809;-71
2022/11/29 02:54:11;;;;;;;3.75;3.20;;;;;;;5.15;100.00;95497.47;5065194;28;24593;-70
2022/11/29 02:56:46;;;;;;;4.28;3.30;;;;;;;5.12;100.00;95496.78;5060976;28;24448;-70
2022/11/29 02:59:20;;;;;;;3.05;2.63;;;;;;;5.14;100.00;95492.41;5062478;28;25006;-70
2022/11/29 03:01:55;;;;;;;1.45;0.95;;;;;;;5.06;100.00;95491.03;5067592;28;24457;-70
2022/11/29 03:04:31;;;;;;;0.95;0.47;;;;;;;5.03;100.00;95492.91;5065444;28;25079;-70
2022/11/29 03:07:10;;;;;;;0.40;0.25;;;;;;;4.99;100.00;95492.22;5068122;28;24437;-71
2022/11/29 03:09:43;;;;;;;0.43;0.30;;;;;;;5.01;100.00;95503.25;5064503;28;24841;-70
2022/11/29 03:12:19;;;;;;;0.65;0.30;;;;;;;5.02;100.00;95496.38;5064940;28;24441;-71
2022/11/29 03:14:56;;;;;;;0.23;0.23;;;;;;;5.01;100.00;95500.69;5062610;28;24432;-70
2022/11/29 03:17:31;;;;;;;0.50;0.20;;;;;;;5.01;100.00;95499.88;5068205;28;24537;-70
2022/11/29 03:20:13;;;;;;;0.43;0.20;;;;;;;5.08;100.00;95494.38;5059628;28;24431;-70
2022/11/29 03:22:52;;;;;;;1.63;1.17;;;;;;;5.12;100.00;95499.34;5064654;28;24435;-70
2022/11/29 03:25:26;;;;;;;1.90;1.20;;;;;;;5.07;100.00;95504.69;5057641;28;24455;-70
2022/11/29 03:28:00;;;;;;;0.65;0.55;;;;;;;5.09;100.00;95502.91;5063160;28;24431;-70
2022/11/29 03:30:29;;;;;;;0.75;0.40;;;;;;;5.06;100.00;95505.59;5067791;28;24431;-70
2022/11/29 03:33:08;;;;;;;0.82;0.68;;;;;;;5.13;100.00;95512.13;5062303;28;24442;-70
2022/11/29 03:35:40;;;;;;;0.85;0.63;;;;;;;5.16;100.00;95513.75;5068943;28;24457;-70
2022/11/29 03:38:18;;;;;;;1.05;0.70;;;;;;;5.25;100.00;95510.72;5061276;28;24446;-70
2022/11/29 03:40:51;;;;;;;12.00;0.70;;;;;;;5.24;100.00;95514.22;5062733;28;24438;-71
2022/11/29 03:43:23;;;;;;;1.27;0.77;;;;;;;5.19;100.00;95511.88;5060870;28;24505;-70
2022/11/29 03:45:57;;;;;;;0.90;0.70;;;;;;;5.21;100.00;95516.91;5063255;28;24796;-71
2022/11/29 03:48:31;;;;;;;0.75;0.73;;;;;;;5.23;100.00;95513.38;5061998;28;24437;-70
2022/11/29 03:51:03;;;;;;;2.00;0.80;;;;;;;5.21;100.00;95522.88;5063821;28;24439;-70
2022/11/29 03:53:39;;;;;;;1.60;1.08;;;;;;;5.19;100.00;95519.56;5055123;28;24427;-70
2022/11/29 03:56:25;;;;;;;0.77;0.70;;;;;;;5.17;100.00;95525.66;5064283;28;24461;-70
2022/11/29 03:58:57;;;;;;;1.63;0.88;;;;;;;5.16;100.00;95529.13;5064181;28;24430;-70
2022/11/29 04:02:03;;;;;;;0.80;0.80;;;;;;;5.16;100.00;95532.53;5061612;28;24446;-69
2022/11/29 04:05:00;;;;;;;1.00;0.90;;;;;;;5.17;100.00;95533.38;5047807;28;24516;-70
2022/11/29 04:07:43;;;;;;;0.70;0.70;;;;;;;5.16;100.00;95534.28;5061325;28;24984;-70
2022/11/29 04:10:25;;;;;;;1.70;0.73;;;;;;;5.15;100.00;95537.72;5057247;28;24809;-70
2022/11/29 04:13:20;;;;;;;2.20;0.80;;;;;;;5.16;100.00;95532.53;5064400;28;25053;-72
2022/11/29 04:16:10;;;;;;;0.70;0.60;;;;;;;5.16;100.00;95535.09;5053587;28;24846;-71
2022/11/29 04:19:04;;;;;;;0.80;0.70;;;;;;;5.08;100.00;95532.06;5058995;28;25049;-72
2022/11/29 04:22:08;;;;;;;0.80;0.63;;;;;;;5.08;100.00;95535.44;5055914;28;24443;-71
2022/11/29 04:25:04;;;;;;;2.88;1.02;;;;;;;5.12;100.00;95551.56;5059284;28;24442;-71
2022/11/29 04:27:40;;;;;;;2.72;2.20;;;;;;;5.14;100.00;95546.34;5063565;28;24971;-72
2022/11/29 04:30:13;;;;;;;3.47;3.17;;;;;;;5.13;100.00;95545.50;5065975;28;24455;-72
2022/11/29 04:33:13;;;;;;;4.60;3.33;;;;;;;5.22;100.00;95549.38;5067988;28;24435;-71
2022/11/29 04:35:55;;;;;;;7.27;3.90;;;;;;;5.18;100.00;95551.25;5057453;28;24561;-71
2022/11/29 04:38:42;;;;;;;3.70;2.83;;;;;;;5.19;100.00;95554.66;5062845;28;24435;-70
2022/11/29 04:41:28;;;;;;;3.50;3.20;;;;;;;5.16;100.00;95549.69;5068916;28;25006;-72
2022/11/29 04:44:10;;;;;;;3.97;2.90;;;;;;;5.15;100.00;95559.09;5067400;28;24805;-70
2022/11/29 04:46:52;;;;;;;4.03;2.47;;;;;;;5.17;100.00;95564.16;5061954;28;24439;-70
2022/11/29 04:49:33;;;;;;;4.10;2.20;;;;;;;5.10;100.00;95561.88;5067955;28;24972;-70
2022/11/29 04:52:20;;;;;;;2.38;2.17;;;;;;;5.13;100.00;95560.91;5064234;28;24438;-71
2022/11/29 04:54:51;;;;;;;1.83;1.60;;;;;;;5.17;100.00;95552.16;5072500;28;24441;-71
2022/11/29 04:57:27;;;;;;;4.50;2.72;;;;;;;5.34;100.00;95557.38;5067179;28;24461;-70
2022/11/29 05:00:05;;;;;;;2.20;1.88;;;;;;;5.28;100.00;95560.22;5065783;28;24442;-71
2022/11/29 05:02:40;;;;;;;3.47;1.83;;;;;;;5.27;100.00;95568.81;5068923;28;24460;-72
2022/11/29 05:05:21;;;;;;;1.65;1.50;;;;;;;5.33;100.00;95562.56;5072080;28;24540;-72
2022/11/29 05:07:59;;;;;;;3.70;1.48;;;;;;;5.25;100.00;95565.47;5072024;28;24430;-70
2022/11/29 05:10:35;;;;;;;1.70;1.20;;;;;;;5.23;100.00;95579.31;5066558;28;24435;-70
2022/11/29 05:13:09;;;;;;;1.98;1.50;;;;;;;5.21;100.00;95578.53;5069106;28;24427;-70
2022/11/29 05:15:56;;;;;;;3.58;2.70;;;;;;;5.17;100.00;95579.56;5066279;28;24454;-71
2022/11/29 05:18:56;;;;;;;3.22;2.92;;;;;;;5.14;100.00;95574.56;5068378;28;24434;-72
2022/11/29 05:21:34;;;;;;;3.83;3.20;;;;;;;4.98;100.00;95580.38;5069715;28;24441;-71
2022/11/29 05:24:13;;;;;;;3.25;2.95;;;;;;;5.01;100.00;95574.28;5061730;28;24432;-71
2022/11/29 05:26:49;;;;;;;3.85;3.53;;;;;;;5.08;100.00;95584.22;5063858;28;24423;-70
2022/11/29 05:29:21;;;;;;;3.78;3.22;;;;;;;4.94;100.00;95585.72;5071872;28;24431;-75
2022/11/29 05:32:02;;;;;;;3.63;3.13;;;;;;;4.89;100.00;95580.78;5071072;28;24435;-71
2022/11/29 05:34:59;;;;;;;4.32;3.22;;;;;;;4.89;100.00;95582.50;5057823;28;24441;-71
2022/11/29 05:37:36;;;;;;;3.47;3.08;;;;;;;4.96;100.00;95595.00;5064547;28;24457;-71
2022/11/29 05:40:20;;;;;;;3.65;2.95;;;;;;;5.00;100.00;95588.84;5068723;28;24976;-71
2022/11/29 05:43:04;;;;;;;6.27;4.20;;;;;;;4.96;100.00;95584.75;5066062;28;24494;-70
2022/11/29 05:45:36;;;;;;;6.60;4.70;;;;;;;5.01;100.00;95587.13;5068901;28;24649;-72
2022/11/29 05:48:10;;;;;;;6.47;4.90;;;;;;;5.04;100.00;95592.97;5066245;28;24434;-72
2022/11/29 05:50:42;;;;;;;5.40;4.32;;;;;;;5.02;100.00;95593.91;5069468;28;24450;-72
2022/11/29 05:53:19;;;;;;;3.72;2.92;;;;;;;5.07;100.00;95597.94;5066727;28;24997;-71
2022/11/29 05:55:55;;;;;;;3.90;2.90;;;;;;;5.09;100.00;95597.88;5063210;28;24446;-70
2022/11/29 05:58:31;;;;;;;3.25;2.50;;;;;;;5.10;100.00;95599.53;5065029;28;24414;-70
2022/11/29 06:01:05;;;;;;;3.30;2.25;;;;;;;5.15;100.00;95596.75;5070801;28;24477;-70
2022/11/29 06:03:39;;;;;;;1.97;1.73;;;;;;;5.14;100.00;95597.69;5065794;28;24442;-70
2022/11/29 06:06:15;;;;;;;1.92;1.50;;;;;;;5.03;100.00;95598.97;5071211;28;24998;-72
2022/11/29 06:08:48;;;;;;;1.70;1.40;;;;;;;5.05;100.00;95607.44;5062574;28;25057;-70
2022/11/29 06:11:20;;;;;;;2.15;1.70;;;;;;;5.03;100.00;95609.25;5070361;28;24435;-71
2022/11/29 06:13:55;;;;;;;10.68;1.50;;;;;;;4.98;100.00;95607.78;5067924;28;24458;-71
2022/11/29 06:16:55;;;;;;;3.92;1.63;;;;;;;4.95;100.00;95611.31;5069161;28;24482;-72
2022/11/29 06:19:34;;;;;;;2.13;1.92;;;;;;;4.93;100.00;95615.69;5060558;28;24431;-72
2022/11/29 06:22:13;;;;;;;2.17;1.98;;;;;;;4.94;100.00;95608.81;5067653;28;24996;-71
2022/11/29 06:24:57;;;;;;;2.03;1.80;;;;;;;4.91;100.00;95614.09;5055799;28;24800;-72
2022/11/29 06:27:43;;;;;;;2.83;2.03;;;;;;;4.93;100.00;95617.41;5064264;28;24980;-72
2022/11/29 06:30:12;;;;;;;2.88;2.08;;;;;;;4.94;100.00;95609.66;5054796;28;24435;-68
2022/11/29 06:32:50;;;;;;;2.88;1.98;;;;;;;4.97;100.00;95612.09;5062413;28;24435;-72
2022/11/29 06:35:35;;;;;;;1.73;1.60;;;;;;;4.85;100.00;95621.13;5065086;28;24991;-72
2022/11/29 06:38:08;;;;;;;3.60;1.67;;;;;;;4.93;100.00;95615.69;5069175;28;24438;-72
2022/11/29 06:40:36;;;;;;;3.70;2.33;;;;;;;4.92;100.00;95621.69;5070668;28;25026;-71
2022/11/29 06:43:03;;;;;;;2.00;1.40;;;;;;;4.93;100.00;95623.41;5069822;28;24823;-72
2022/11/29 06:45:30;;;;;;;1.70;1.50;;;;;;;4.92;100.00;95628.56;5066824;28;24442;-71
2022/11/29 06:48:01;;;;;;;2.40;2.00;;;;;;;4.97;100.00;95629.19;5069622;28;24796;-72
2022/11/29 06:50:40;;;;;;;5.57;3.08;;;;;;;5.00;100.00;95636.78;5067337;28;24442;-71
2022/11/29 06:53:14;;;;;;;4.38;3.33;;;;;;;5.03;100.00;95634.91;5068893;28;24447;-72
2022/11/29 06:55:49;;;;;;;7.25;4.80;;;;;;;5.07;100.00;95639.00;5062507;28;24430;-72
2022/11/29 06:58:33;;;;;;;12.75;7.72;;;;;;;5.10;100.00;95640.63;5068630;28;24426;-71
2022/11/29 07:01:07;;;;;;;6.65;4.85;;;;;;;5.12;100.00;95643.09;5066360;28;24442;-72
2022/11/29 07:03:55;;;;;;;4.88;3.10;;;;;;;5.10;100.00;95641.44;5063038;28;24437;-72
2022/11/29 07:06:25;;;;;;;2.03;1.50;;;;;;;5.15;100.00;95641.25;5064868;28;24442;-70
2022/11/29 07:08:56;;;;;;;2.50;1.65;;;;;;;5.21;100.00;95646.13;5067648;28;24812;-71
2022/11/29 07:11:23;;;;;;;3.20;1.92;;;;;;;5.23;100.00;95646.06;5066019;28;24473;-71
2022/11/29 07:13:50;;;;;;;2.00;1.80;;;;;;;5.23;100.00;95651.19;5064617;28;25085;-70
2022/11/29 07:16:25;;;;;;;2.35;1.90;;;;;;;5.20;100.00;95651.34;5067012;28;24451;-72
2022/11/29 07:19:02;;;;;;;2.38;1.70;;;;;;;5.19;100.00;95652.22;5064938;28;24445;-72
2022/11/29 07:21:47;;;;;;;2.53;2.15;;;;;;;5.19;100.00;95652.22;5067480;28;24449;-72
2022/11/29 07:24:29;;;;;;;3.13;2.10;;;;;;;5.18;100.00;95659.09;5064078;28;25036;-72
2022/11/29 07:27:04;;;;;;;3.03;2.05;;;;;;;5.18;100.00;95656.50;5063596;28;24469;-72
2022/11/29 07:29:40;;;;;;;2.25;1.92;;;;;;;5.18;100.00;95658.25;5063820;28;24431;-72
2022/11/29 07:32:17;;;;;;;4.17;2.50;;;;;;;5.19;100.00;95671.03;5069384;28;24837;-72
2022/11/29 07:34:53;;;;;;;2.75;2.20;;;;;;;5.21;100.00;95661.53;5061198;28;24998;-72
2022/11/29 07:37:29;;;;;;;3.00;2.28;;;;;;;5.23;100.00;95664.03;5067782;28;24458;-72
2022/11/29 07:40:02;;;;;;;3.22;2.05;;;;;;;5.24;100.00;95668.25;5067989;28;24441;-72
2022/11/29 07:42:40;;;;;;;2.47;2.08;;;;;;;5.23;100.00;95664.88;5066505;28;24442;-72
2022/11/29 07:45:16;;;;;;;3.70;2.50;;;;;;;5.24;100.00;95675.97;5064337;28;25078;-72
2022/11/29 07:47:42;;;;;;;2.50;1.95;;;;;;;5.23;100.00;95674.31;5065732;28;24470;-72
2022/11/29 07:50:10;;;;;;;3.15;2.28;;;;;;;5.21;100.00;95668.41;5061499;28;24801;-72
2022/11/29 07:52:38;;;;;;;5.00;2.47;;;;;;;5.17;100.00;95674.56;5059560;28;24435;-72
2022/11/29 07:55:06;;;;;;;4.78;3.28;;;;;;;5.21;100.00;95681.22;5068053;28;24447;-72
2022/11/29 07:57:32;;;;;;;4.65;3.10;;;;;;;5.25;100.00;95681.03;5065202;28;24451;-72
2022/11/29 07:59:59;;;;;;;4.47;3.40;;;;;;;5.28;100.00;95685.19;5067635;28;24437;-72
2022/11/29 08:02:29;;;;;;;5.53;3.70;;;;;;;5.31;100.00;95678.19;5066807;28;24529;-72
2022/11/29 08:04:55;;;;;;;4.15;3.70;;;;;;;5.36;100.00;95678.00;5067002;28;25019;-72
2022/11/29 08:07:22;;;;;;;6.10;3.80;;;;;;;5.38;100.00;95681.34;5068640;28;25007;-72
2022/11/29 08:09:50;;;;;;;4.78;3.72;;;;;;;5.39;100.00;95695.00;5063995;28;24433;-72
2022/11/29 08:12:16;;;;;;;7.40;3.60;;;;;;;5.43;100.00;95691.41;5065651;28;24457;-72
2022/11/29 08:14:43;;;;;;;3.25;2.95;;;;;;;5.42;100.00;95685.44;5066781;28;24433;-72
2022/11/29 08:17:09;;;;;;;4.90;3.60;;;;;;;5.45;100.00;95685.31;5063235;28;25026;-70
2022/11/29 08:19:36;;;;;;;4.40;3.20;;;;;;;5.41;100.00;95695.75;5070024;28;24979;-71
2022/11/29 08:22:02;;;;;;;5.55;3.45;;;;;;;5.40;100.00;95694.94;5073367;28;24508;-72
2022/11/29 08:24:29;;;;;;;3.85;2.85;;;;;;;5.40;100.00;95691.53;5070389;28;24437;-73
2022/11/29 08:26:57;;;;;;;8.80;2.80;;;;;;;5.39;100.00;95695.00;5067631;28;24525;-73
2022/11/29 08:29:24;;;;;;;3.42;2.90;;;;;;;5.37;100.00;95692.50;5072840;28;24430;-70
2022/11/29 08:31:52;;;;;;;2.90;2.65;;;;;;;5.37;100.00;95699.38;5068242;28;24438;-71
2022/11/29 08:34:19;;;;;;;2.80;2.10;;;;;;;5.38;100.00;95701.88;5070538;28;24797;-72
2022/11/29 08:36:45;;;;;;;2.95;2.67;;;;;;;5.34;100.00;95708.06;5067857;28;24458;-71
2022/11/29 08:39:12;;;;;;;3.90;2.90;;;;;;;5.38;100.00;95706.16;5070743;28;24423;-71
2022/11/29 08:41:38;;;;;;;6.38;4.45;;;;;;;5.37;100.00;95710.47;5068595;28;25121;-72
2022/11/29 08:44:07;;;;;;;7.53;5.60;;;;;;;5.31;100.00;95710.75;5071343;28;24441;-72
2022/11/29 08:49:17;;;;;;;5.88;5.03;;;;;;;5.33;100.00;95708.94;5039545;28;24423;-72
2022/11/29 08:51:44;;;;;;;5.57;3.57;;;;;;;5.31;100.00;95709.03;5068961;28;24445;-72
2022/11/29 08:54:10;;;;;;;4.50;3.17;;;;;;;5.33;100.00;95714.91;5071627;28;24434;-72
2022/11/29 08:56:37;;;;;;;4.38;3.70;;;;;;;5.33;100.00;95716.66;5068618;28;24447;-72
2022/11/29 08:59:04;;;;;;;4.97;4.45;;;;;;;5.28;100.00;95710.88;5071328;28;24426;-72
2022/11/29 09:01:31;;;;;;;6.03;5.00;;;;;;;5.28;100.00;95716.84;5069099;28;24434;-72
2022/11/29 09:04:02;;;;;;;7.70;6.38;;;;;;;5.25;100.00;95718.72;5071602;28;24433;-73
2022/11/29 09:06:30;;;;;;;9.50;6.60;;;;;;;5.23;100.00;95725.66;5068404;28;24519;-73
2022/11/29 09:08:57;;;;;;;9.27;6.82;;;;;;;5.23;100.00;95723.09;5066604;28;24439;-73
2022/11/29 09:11:26;;;;;;;13.48;8.13;;;;;;;5.22;100.00;95729.09;5069367;28;24438;-72
2022/11/29 09:13:55;;;;;;;12.20;8.50;;;;;;;5.19;100.00;95730.09;5071738;28;24987;-73
2022/11/29 09:16:24;;;;;;;11.75;7.10;;;;;;;5.20;100.00;95734.31;5069062;28;24433;-72
2022/11/29 09:18:54;;;;;;;13.23;5.90;;;;;;;5.21;100.00;95740.28;5066453;28;24438;-72
2022/11/29 09:21:22;;;;;;;10.50;5.95;;;;;;;5.24;100.00;95733.28;5063650;28;24446;-73
2022/11/29 09:23:49;;;;;;;7.85;5.80;;;;;;;5.27;100.00;95738.31;5067073;28;24431;-73
2022/11/29 09:26:18;;;;;;;10.00;5.68;;;;;;;5.26;100.00;95743.47;5069841;28;24446;-73
2022/11/29 09:28:44;;;;;;;7.20;5.40;;;;;;;5.27;100.00;95750.31;5066806;28;24441;-72
2022/11/29 09:31:13;;;;;;;12.57;6.03;;;;;;;5.33;100.00;95750.03;5065288;28;24441;-72
2022/11/29 09:33:40;;;;;;;8.32;5.57;;;;;;;5.32;100.00;95750.94;5067608;28;24438;-72
2022/11/29 09:36:10;;;;;;;9.80;6.72;;;;;;;5.31;100.00;95746.72;5069220;28;24434;-71
2022/11/29 09:38:37;;;;;;;8.88;6.30;;;;;;;5.33;100.00;95753.44;5060531;28;25009;-72
2022/11/29 09:41:14;;;;;;;8.98;6.57;;;;;;;5.30;100.00;95751.00;5069423;28;24438;-72
2022/11/29 09:43:50;;;;;;;11.88;6.50;;;;;;;5.34;100.00;95752.56;5061007;28;24431;-72
2022/11/29 09:46:29;;;;;;;11.40;6.77;;;;;;;5.34;100.00;95757.69;5067082;28;24433;-72
2022/11/29 09:49:09;;;;;;;12.73;6.83;;;;;;;5.33;100.00;95757.72;5066960;28;24491;-71
2022/11/29 09:51:46;;;;;;;11.13;6.50;;;;;;;5.41;100.00;95755.66;5070057;28;24437;-72
2022/11/29 09:54:24;;;;;;;7.28;4.68;;;;;;;5.41;100.00;95758.22;5066842;28;24501;-72
2022/11/29 09:56:54;;;;;;;5.93;4.28;;;;;;;5.43;100.00;95758.19;5070070;28;24458;-72
2022/11/29 09:59:26;;;;;;;6.07;3.30;;;;;;;5.43;100.00;95755.63;5067124;28;24488;-72
2022/11/29 10:01:58;;;;;;;3.67;3.13;;;;;;;5.37;100.00;95759.25;5070380;28;20849;-72
2022/11/29 10:04:29;;;;;;;3.67;2.17;;;;;;;5.40;100.00;95759.16;5065679;28;20746;-72
2022/11/29 10:07:03;;;;;;;3.90;2.10;;;;;;;5.39;100.00;95762.63;5066091;28;24459;-72
2022/11/29 10:09:35;;;;;;;1.40;1.15;;;;;;;5.39;100.00;95765.19;5061805;28;24813;-71
2022/11/29 10:12:12;;;;;;;1.85;1.35;;;;;;;5.44;100.00;95765.81;5070560;28;24434;-71
2022/11/29 10:14:45;;;;;;;2.90;1.23;;;;;;;5.41;100.00;95765.94;5062860;28;24438;-72
2022/11/29 10:17:23;;;;;;;1.92;1.15;;;;;;;5.40;100.00;95761.72;5069846;28;25021;-71
2022/11/29 10:19:52;;;;;;;1.10;1.00;;;;;;;5.40;100.00;95761.72;5064792;28;24434;-72
2022/11/29 10:22:25;;;;;;;1.85;1.65;;;;;;;5.39;100.00;95752.34;5065071;28;24484;-72
2022/11/29 10:24:57;;;;;;;2.30;1.90;;;;;;;5.41;100.00;95755.66;5067762;28;24449;-71
2022/11/29 10:27:27;;;;;;;1.10;1.00;;;;;;;5.40;100.00;95759.16;5070391;28;24430;-72
2022/11/29 10:29:54;;;;;;;1.40;1.10;;;;;;;5.42;100.00;95759.94;5067910;28;24854;-71
2022/11/29 10:32:25;;;;;;;2.13;1.10;;;;;;;5.43;100.00;95759.03;5064758;28;24426;-72
2022/11/29 10:34:52;;;;;;;2.35;1.13;;;;;;;5.38;100.00;95760.09;5067916;28;24557;-72
2022/11/29 10:37:21;;;;;;;1.80;1.30;;;;;;;5.37;100.00;95766.97;5064875;28;24525;-71
2022/11/29 10:39:50;;;;;;;2.00;1.45;;;;;;;5.39;100.00;95764.34;5068216;28;24427;-72
2022/11/29 10:45:05;;;;;;;1.63;1.30;;;;;;;5.37;100.00;95764.41;5068167;28;24429;-71
2022/11/29 10:47:32;;;;;;;1.80;1.50;;;;;;;5.38;100.00;95762.66;5065379;28;25283;-72
2022/11/29 10:49:59;;;;;;;2.10;1.90;;;;;;;5.42;100.00;95765.06;5062161;28;25286;-72
2022/11/29 10:52:27;;;;;;;3.63;2.33;;;;;;;5.42;100.00;95762.50;5065703;28;24441;-72
2022/11/29 10:54:56;;;;;;;2.40;2.20;;;;;;;5.45;100.00;95762.38;5068383;28;25090;-72
2022/11/29 10:57:23;;;;;;;2.20;1.98;;;;;;;5.43;100.00;95758.19;5065537;28;24451;-72
2022/11/29 11:00:02;;;;;;;2.28;2.08;;;;;;;5.44;100.00;95762.41;5068638;28;24441;-72
2022/11/29 11:02:29;;;;;;;7.00;2.10;;;;;;;5.43;100.00;95753.88;5064776;28;24443;-72
2022/11/29 11:04:56;;;;;;;2.17;1.90;;;;;;;5.42;100.00;95756.53;5068376;28;24433;-72
2022/11/29 11:07:26;;;;;;;2.30;1.80;;;;;;;5.40;100.00;95756.56;5065805;28;24434;-71
2022/11/29 11:09:56;;;;;;;3.00;2.22;;;;;;;5.44;100.00;95754.72;5069217;28;25009;-72
2022/11/29 11:12:27;;;;;;;2.50;2.10;;;;;;;5.51;100.00;95756.13;5061347;28;24437;-72
2022/11/29 11:15:13;;;;;;;2.97;1.90;;;;;;;5.48;100.00;95754.50;5068702;28;24431;-72
2022/11/29 11:17:41;;;;;;;2.17;1.97;;;;;;;5.52;100.00;95752.63;5065982;28;24461;-72
2022/11/29 11:20:20;;;;;;;2.00;1.77;;;;;;;5.51;100.00;95756.13;5069390;28;24527;-72
2022/11/29 11:22:58;;;;;;;3.10;1.63;;;;;;;5.55;100.00;95748.22;5064561;28;24453;-72
2022/11/29 11:25:29;;;;;;;1.60;1.50;;;;;;;5.61;100.00;95751.44;5067810;28;24549;-72
2022/11/29 11:27:57;;;;;;;1.63;1.33;;;;;;;5.68;100.00;95750.25;5066149;28;24522;-72
2022/11/29 11:30:25;;;;;;;1.55;1.45;;;;;;;5.72;100.00;95752.63;5069012;28;24817;-72
2022/11/29 11:33:08;;;;;;;1.40;1.30;;;;;;;5.72;100.00;95756.94;5066095;28;24429;-72
2022/11/29 11:35:36;;;;;;;1.13;1.02;;;;;;;5.67;100.00;95759.69;5068820;28;24430;-72
2022/11/29 11:38:02;;;;;;;1.35;1.10;;;;;;;5.69;100.00;95754.50;5065875;28;24454;-72
2022/11/29 11:40:31;;;;;;;3.28;1.15;;;;;;;5.73;100.00;95756.84;5068779;28;24940;-72
2022/11/29 11:43:01;;;;;;;1.92;1.10;;;;;;;5.78;100.00;95759.22;5066153;28;24525;-72
2022/11/29 11:45:33;;;;;;;1.10;1.00;;;;;;;5.78;100.00;95762.66;5068574;28;24427;-70
2022/11/29 11:48:04;;;;;;;1.73;1.10;;;;;;;5.72;100.00;95768.03;5065654;28;24990;-72
2022/11/29 11:50:33;;;;;;;1.00;0.90;;;;;;;5.80;100.00;95768.53;5068590;28;20876;-71
2022/11/29 11:53:03;;;;;;;1.23;1.08;;;;;;;5.92;100.00;95764.63;5058571;28;24435;-71
2022/11/29 11:55:35;;;;;;;1.37;1.03;;;;;;;5.91;100.00;95773.19;5068380;28;20810;-72
2022/11/29 11:58:06;;;;;;;3.50;1.10;;;;;;;5.87;100.00;95775.97;5065799;28;24454;-71
2022/11/29 12:00:43;;;;;;;2.22;1.20;;;;;;;5.92;100.00;95764.63;5068884;28;24773;-71
2022/11/29 12:03:25;;;;;;;2.72;1.60;;;;;;;5.95;100.00;95784.22;5058247;28;20799;-71
2022/11/29 12:05:54;;;;;;;1.52;1.40;;;;;;;5.90;100.00;95779.25;5063035;28;24442;-71
2022/11/29 12:08:23;;;;;;;2.20;1.70;;;;;;;5.90;100.00;95776.69;5066011;28;24906;-72